createdAt,value
2023-03-23T00:00:00.129Z,990.26
2023-03-23T00:05:00.128Z,990.31
2023-03-23T00:10:00.138Z,990.19
2023-03-23T00:15:00.130Z,990.13
2023-03-23T00:20:00.103Z,990.1
2023-03-23T00:25:00.196Z,990.06
2023-03-23T00:30:00.142Z,990.04
2023-03-23T00:35:00.129Z,989.97
2023-03-23T00:40:00.118Z,989.88
2023-03-23T00:45:00.106Z,989.9
2023-03-23T00:50:00.199Z,989.89
2023-03-23T00:55:00.128Z,989.84
2023-03-23T01:00:05.431Z,989.73
2023-03-23T01:05:00.125Z,989.86
2023-03-23T01:10:00.169Z,989.77
2023-03-23T01:15:00.131Z,989.66
2023-03-23T01:20:00.121Z,989.6
2023-03-23T01:25:00.115Z,989.6
2023-03-23T01:30:00.176Z,989.68
2023-03-23T01:35:00.137Z,989.58
2023-03-23T01:40:00.108Z,989.45
2023-03-23T01:45:00.099Z,989.38
2023-03-23T01:50:00.140Z,989.41
2023-03-23T01:55:00.130Z,989.53
2023-03-23T02:00:00.136Z,989.48
2023-03-23T02:05:00.136Z,989.36
2023-03-23T02:10:00.152Z,989.27
2023-03-23T02:15:00.112Z,989.3
2023-03-23T02:20:00.192Z,989.27
2023-03-23T02:25:00.117Z,989.1
2023-03-23T02:30:00.167Z,989.03
2023-03-23T02:35:00.109Z,989.02
2023-03-23T02:40:00.119Z,989.05
2023-03-23T02:45:00.137Z,988.98
2023-03-23T02:50:00.179Z,989.02
2023-03-23T02:55:00.132Z,988.91
2023-03-23T03:00:00.155Z,988.86
2023-03-23T03:05:00.162Z,988.7
2023-03-23T03:10:00.146Z,988.77
2023-03-23T03:15:00.100Z,988.81
2023-03-23T03:20:00.165Z,988.62
2023-03-23T03:25:00.124Z,988.59
2023-03-23T03:30:00.121Z,988.5
2023-03-23T03:35:00.130Z,988.64
2023-03-23T03:40:00.123Z,988.57
2023-03-23T03:45:00.127Z,988.57
2023-03-23T03:50:00.134Z,988.64
2023-03-23T03:55:00.111Z,988.55
2023-03-23T04:00:00.139Z,988.74
2023-03-23T04:05:00.129Z,988.64
2023-03-23T04:10:00.141Z,988.57
2023-03-23T04:15:06.139Z,988.7
2023-03-23T04:20:00.156Z,988.74
2023-03-23T04:25:00.103Z,988.81
2023-03-23T04:30:00.193Z,988.21
2023-03-23T04:35:12.422Z,988.17
2023-03-23T04:40:00.137Z,988.17
2023-03-23T04:45:00.151Z,988.2
2023-03-23T04:50:00.142Z,988.29
2023-03-23T04:55:00.106Z,988.35
2023-03-23T05:00:00.140Z,988.24
2023-03-23T05:05:00.133Z,988.25
2023-03-23T05:10:00.131Z,988.32
2023-03-23T05:15:00.113Z,988.51
2023-03-23T05:20:00.113Z,988.37
2023-03-23T05:25:00.128Z,988.34
2023-03-23T05:30:00.184Z,988.37
2023-03-23T05:35:00.152Z,988.36
2023-03-23T05:40:00.115Z,988.4
2023-03-23T05:45:00.116Z,988.4
2023-03-23T05:50:00.163Z,988.45
2023-03-23T05:55:00.107Z,988.54
2023-03-23T06:00:00.233Z,988.44
2023-03-23T06:05:00.106Z,988.58
2023-03-23T06:10:00.149Z,988.7
2023-03-23T06:15:00.129Z,988.8
2023-03-23T06:20:00.118Z,988.94
2023-03-23T06:25:00.113Z,988.94
2023-03-23T06:30:00.170Z,989.15
2023-03-23T06:35:00.132Z,988.98
2023-03-23T06:40:00.145Z,989.01
2023-03-23T06:45:00.114Z,989.03
2023-03-23T06:50:00.128Z,988.96
2023-03-23T06:55:00.112Z,989.12
2023-03-23T07:00:00.158Z,989.12
2023-03-23T07:05:00.130Z,989.14
2023-03-23T07:10:00.156Z,989.28
2023-03-23T07:15:00.155Z,989.42
2023-03-23T07:20:00.121Z,989.39
2023-03-23T07:25:00.161Z,989.43
2023-03-23T07:30:00.160Z,989.42
2023-03-23T07:35:00.139Z,989.43
2023-03-23T07:40:00.125Z,989.49
2023-03-23T07:45:00.195Z,989.54
2023-03-23T07:50:00.148Z,989.57
2023-03-23T07:55:00.145Z,989.64
2023-03-23T08:00:00.142Z,989.46
2023-03-23T08:05:00.146Z,989.42
2023-03-23T08:10:00.183Z,989.4
2023-03-23T08:15:00.102Z,989.5
2023-03-23T08:20:00.167Z,989.55
2023-03-23T08:25:00.111Z,989.51
2023-03-23T08:30:00.157Z,989.48
2023-03-23T08:35:00.102Z,989.49
2023-03-23T08:40:00.127Z,989.45
2023-03-23T08:45:00.107Z,989.54
2023-03-23T08:50:00.123Z,989.54
2023-03-23T08:55:00.134Z,989.6
2023-03-23T09:00:00.129Z,989.45
2023-03-23T09:05:00.113Z,989.41
2023-03-23T09:10:00.132Z,989.36
2023-03-23T09:15:00.102Z,989.28
2023-03-23T09:20:00.227Z,989.32
2023-03-23T09:25:00.120Z,989.12
2023-03-23T09:30:00.186Z,989.23
2023-03-23T09:35:00.115Z,989.31
2023-03-23T09:40:06.586Z,989.36
2023-03-23T09:45:00.149Z,989.25
2023-03-23T09:50:00.157Z,989.21
2023-03-23T09:55:00.119Z,989.37
2023-03-23T10:00:00.203Z,989.34
2023-03-23T10:05:00.122Z,989.38
2023-03-23T10:10:00.161Z,989.43
2023-03-23T10:15:00.125Z,989.46
2023-03-23T10:20:00.152Z,989.35
2023-03-23T10:25:00.108Z,989.28
2023-03-23T10:30:00.210Z,989.22
2023-03-23T10:35:00.128Z,989.32
2023-03-23T10:40:00.162Z,989.29
2023-03-23T10:45:00.146Z,989.43
2023-03-23T10:50:00.171Z,989.35
2023-03-23T10:55:00.106Z,989.37
2023-03-23T11:00:00.141Z,989.39
2023-03-23T11:05:03.069Z,989.26
2023-03-23T11:10:00.155Z,989.27
2023-03-23T11:15:00.109Z,989.39
2023-03-23T11:20:00.121Z,989.47
2023-03-23T11:25:00.115Z,989.48
2023-03-23T11:30:00.169Z,989.58
2023-03-23T11:35:10.427Z,989.58
2023-03-23T11:40:00.167Z,989.48
2023-03-23T11:45:00.103Z,989.65
2023-03-23T11:50:00.160Z,989.74
2023-03-23T11:55:00.135Z,989.73
2023-03-23T12:00:00.212Z,989.68
2023-03-23T12:05:00.168Z,989.6
2023-03-23T12:10:00.145Z,989.7
2023-03-23T12:15:00.154Z,989.75
2023-03-23T12:20:00.116Z,989.62
2023-03-23T12:25:00.111Z,989.71
2023-03-23T12:30:00.155Z,989.68
2023-03-23T12:35:00.132Z,989.58
2023-03-23T12:40:00.118Z,989.53
2023-03-23T12:45:00.140Z,989.43
2023-03-23T12:50:00.149Z,989.07
2023-03-23T12:55:00.123Z,988.98
2023-03-23T13:00:00.180Z,988.81
2023-03-23T13:05:00.110Z,989.03
2023-03-23T13:10:00.177Z,989.2
2023-03-23T13:15:00.120Z,989.23
2023-03-23T13:20:00.140Z,989.18
2023-03-23T13:25:00.143Z,989.25
2023-03-23T13:30:00.196Z,989.19
2023-03-23T13:35:00.118Z,989.22
2023-03-23T13:40:00.165Z,989.24
2023-03-23T13:45:00.110Z,989.24
2023-03-23T13:50:00.180Z,989.26
2023-03-23T13:55:00.157Z,989.2
2023-03-23T14:00:00.141Z,989.28
2023-03-23T14:05:00.140Z,989.28
2023-03-23T14:10:00.168Z,989.29
2023-03-23T14:15:00.109Z,989.38
2023-03-23T14:20:00.110Z,989.42
2023-03-23T14:25:00.140Z,989.32
2023-03-23T14:30:00.113Z,989.34
2023-03-23T14:35:00.103Z,989.25
2023-03-23T14:40:00.128Z,989.43
2023-03-23T14:45:00.104Z,989.37
2023-03-23T14:50:00.157Z,989.45
2023-03-23T14:55:00.110Z,989.46
2023-03-23T15:00:00.136Z,989.5
2023-03-23T15:05:00.096Z,989.44
2023-03-23T15:10:00.132Z,989.55
2023-03-23T15:15:00.088Z,989.64
2023-03-23T15:20:00.101Z,989.69
2023-03-23T15:25:00.115Z,989.68
2023-03-23T15:30:00.174Z,989.59
2023-03-23T15:35:00.132Z,989.52
2023-03-23T15:40:00.131Z,989.56
2023-03-23T15:45:00.132Z,989.57
2023-03-23T15:50:00.187Z,989.62
2023-03-23T15:55:00.133Z,989.6
2023-03-23T16:00:00.188Z,989.76
2023-03-23T16:05:00.155Z,989.72
2023-03-23T16:10:00.193Z,989.77
2023-03-23T16:15:00.122Z,989.81
2023-03-23T16:20:00.108Z,989.68
2023-03-23T16:25:00.132Z,989.74
2023-03-23T16:30:04.079Z,989.71
2023-03-23T16:35:00.134Z,989.76
2023-03-23T16:40:00.205Z,989.86
2023-03-23T16:45:00.142Z,989.91
2023-03-23T16:50:00.203Z,990.13
2023-03-23T16:55:00.149Z,990.1
2023-03-23T17:00:00.155Z,990.05
2023-03-23T17:05:00.136Z,989.93
2023-03-23T17:10:00.142Z,990.14
2023-03-23T17:15:00.097Z,990.09
2023-03-23T17:20:00.108Z,989.94
2023-03-23T17:25:00.221Z,989.8
2023-03-23T17:30:00.155Z,989.73
2023-03-23T17:35:00.100Z,989.77
2023-03-23T17:40:00.139Z,989.91
2023-03-23T17:45:00.118Z,989.93
2023-03-23T17:50:00.150Z,990.03
2023-03-23T17:55:00.112Z,990.06
2023-03-23T18:00:00.176Z,989.96
2023-03-23T18:05:00.117Z,990
2023-03-23T18:10:00.147Z,989.92
2023-03-23T18:15:00.158Z,989.96
2023-03-23T18:20:00.121Z,989.99
2023-03-23T18:25:00.305Z,990.01
2023-03-23T18:30:00.209Z,990.09
2023-03-23T18:35:00.125Z,990.1
2023-03-23T18:40:00.157Z,990.16
2023-03-23T18:45:00.144Z,990.22
2023-03-23T18:50:00.148Z,990.23
2023-03-23T18:55:00.185Z,990.15
2023-03-23T19:00:00.220Z,990.15
2023-03-23T19:05:00.110Z,990.16
2023-03-23T19:10:00.167Z,990.13
2023-03-23T19:15:00.170Z,990.12
2023-03-23T19:20:00.102Z,990.12
2023-03-23T19:25:00.113Z,990.26
2023-03-23T19:30:00.195Z,990.25
2023-03-23T19:35:00.138Z,990.2
2023-03-23T19:40:01.489Z,990.33
2023-03-23T19:45:00.114Z,990.29
2023-03-23T19:50:00.139Z,990.34
2023-03-23T19:55:00.220Z,990.39
2023-03-23T20:00:00.131Z,990.41
2023-03-23T20:05:00.222Z,990.39
2023-03-23T20:10:00.538Z,990.37
2023-03-23T20:15:00.146Z,990.27
2023-03-23T20:20:00.129Z,990.25
2023-03-23T20:25:00.591Z,990.25
2023-03-23T20:30:03.823Z,990.26
2023-03-23T20:35:00.121Z,990.26
2023-03-23T20:40:00.147Z,990.23
2023-03-23T20:45:00.132Z,990.32
2023-03-23T20:50:00.218Z,990.28
2023-03-23T20:55:00.114Z,990.15
2023-03-23T21:00:00.177Z,990.19
2023-03-23T21:05:00.117Z,990.23
2023-03-23T21:10:00.183Z,990.16
2023-03-23T21:15:00.137Z,990.13
2023-03-23T21:20:00.126Z,990.11
2023-03-23T21:25:00.144Z,990.08
2023-03-23T21:30:00.191Z,990.56
2023-03-23T21:35:00.142Z,990.59
2023-03-23T21:40:00.137Z,990.63
2023-03-23T21:45:00.134Z,990.52
2023-03-23T21:50:00.142Z,990.49
2023-03-23T21:55:00.115Z,990.4
2023-03-23T22:00:00.174Z,990.32
2023-03-23T22:05:00.100Z,990.32
2023-03-23T22:10:00.150Z,990.2
2023-03-23T22:15:00.136Z,990.22
2023-03-23T22:20:00.112Z,990.14
2023-03-23T22:25:00.111Z,990.07
2023-03-23T22:30:00.131Z,990.02
2023-03-23T22:35:00.104Z,990.02
2023-03-23T22:40:00.119Z,989.84
2023-03-23T22:45:00.132Z,989.88
2023-03-23T22:50:00.154Z,989.73
2023-03-23T22:55:00.122Z,989.7
2023-03-23T23:00:00.199Z,989.67
2023-03-23T23:05:00.139Z,989.68
2023-03-23T23:10:00.155Z,989.65
2023-03-23T23:15:00.142Z,989.53
2023-03-23T23:20:00.142Z,989.52
2023-03-23T23:25:00.163Z,989.42
2023-03-23T23:30:00.154Z,989.36
2023-03-23T23:35:00.117Z,989.43
2023-03-23T23:40:00.137Z,989.42
2023-03-23T23:45:00.120Z,989.31
2023-03-23T23:50:00.170Z,989.35
2023-03-23T23:55:00.110Z,989.24
